sensor_id;sensor_type;location;lat;lon;timestamp;P1;durP1;ratioP1;P2;durP2;ratioP2
46282;SDS011;32017;43.700;11.820;2022-11-03T00:01:34;14.30;;;13.10;;
46282;SDS011;32017;43.700;11.820;2022-11-03T00:06:16;17.10;;;14.00;;
46282;SDS011;32017;43.700;11.820;2022-11-03T00:08:37;13.15;;;11.82;;
46282;SDS011;32017;43.700;11.820;2022-11-03T00:11:05;16.67;;;14.00;;
46282;SDS011;32017;43.700;11.820;2022-11-03T00:13:33;15.40;;;12.45;;
46282;SDS011;32017;43.700;11.820;2022-11-03T00:15:53;13.95;;;12.43;;
46282;SDS011;32017;43.700;11.820;2022-11-03T00:18:13;14.82;;;13.45;;
46282;SDS011;32017;43.700;11.820;2022-11-03T00:20:33;12.57;;;11.55;;
46282;SDS011;32017;43.700;11.820;2022-11-03T00:22:53;14.20;;;13.00;;
46282;SDS011;32017;43.700;11.820;2022-11-03T00:25:13;14.23;;;12.85;;
46282;SDS011;32017;43.700;11.820;2022-11-03T00:27:33;11.80;;;11.00;;
46282;SDS011;32017;43.700;11.820;2022-11-03T00:29:52;13.52;;;12.35;;
46282;SDS011;32017;43.700;11.820;2022-11-03T00:32:12;14.50;;;13.25;;
46282;SDS011;32017;43.700;11.820;2022-11-03T00:34:32;15.73;;;13.75;;
46282;SDS011;32017;43.700;11.820;2022-11-03T00:36:52;14.35;;;13.25;;
46282;SDS011;32017;43.700;11.820;2022-11-03T00:39:12;13.52;;;12.63;;
46282;SDS011;32017;43.700;11.820;2022-11-03T00:41:31;15.40;;;13.85;;
46282;SDS011;32017;43.700;11.820;2022-11-03T00:43:52;15.48;;;13.95;;
46282;SDS011;32017;43.700;11.820;2022-11-03T00:46:12;19.60;;;13.57;;
46282;SDS011;32017;43.700;11.820;2022-11-03T00:48:32;16.73;;;14.95;;
46282;SDS011;32017;43.700;11.820;2022-11-03T00:50:54;14.93;;;13.45;;
46282;SDS011;32017;43.700;11.820;2022-11-03T00:53:19;14.57;;;13.27;;
46282;SDS011;32017;43.700;11.820;2022-11-03T00:55:39;15.85;;;14.30;;
46282;SDS011;32017;43.700;11.820;2022-11-03T00:57:58;15.63;;;14.30;;
46282;SDS011;32017;43.700;11.820;2022-11-03T01:00:18;12.95;;;12.02;;
46282;SDS011;32017;43.700;11.820;2022-11-03T01:02:38;14.50;;;12.95;;
46282;SDS011;32017;43.700;11.820;2022-11-03T01:04:58;13.25;;;11.77;;
46282;SDS011;32017;43.700;11.820;2022-11-03T01:07:37;13.98;;;12.02;;
46282;SDS011;32017;43.700;11.820;2022-11-03T01:09:56;15.05;;;13.25;;
46282;SDS011;32017;43.700;11.820;2022-11-03T01:12:17;12.35;;;11.38;;
46282;SDS011;32017;43.700;11.820;2022-11-03T01:14:39;10.95;;;10.23;;
46282;SDS011;32017;43.700;11.820;2022-11-03T01:16:59;10.95;;;10.30;;
46282;SDS011;32017;43.700;11.820;2022-11-03T01:19:20;11.98;;;9.68;;
46282;SDS011;32017;43.700;11.820;2022-11-03T01:21:41;11.65;;;10.68;;
46282;SDS011;32017;43.700;11.820;2022-11-03T01:24:03;11.32;;;10.75;;
46282;SDS011;32017;43.700;11.820;2022-11-03T01:26:23;11.30;;;10.20;;
46282;SDS011;32017;43.700;11.820;2022-11-03T01:28:44;12.20;;;10.95;;
46282;SDS011;32017;43.700;11.820;2022-11-03T01:31:06;11.15;;;10.45;;
46282;SDS011;32017;43.700;11.820;2022-11-03T01:33:27;10.00;;;9.40;;
46282;SDS011;32017;43.700;11.820;2022-11-03T01:35:51;10.05;;;9.32;;
46282;SDS011;32017;43.700;11.820;2022-11-03T01:38:11;11.10;;;10.27;;
46282;SDS011;32017;43.700;11.820;2022-11-03T01:40:31;10.07;;;9.35;;
46282;SDS011;32017;43.700;11.820;2022-11-03T01:42:51;12.05;;;10.93;;
46282;SDS011;32017;43.700;11.820;2022-11-03T01:45:11;11.60;;;10.65;;
46282;SDS011;32017;43.700;11.820;2022-11-03T01:47:31;9.73;;;8.90;;
46282;SDS011;32017;43.700;11.820;2022-11-03T01:50:15;11.30;;;10.48;;
46282;SDS011;32017;43.700;11.820;2022-11-03T01:55:08;11.05;;;10.02;;
46282;SDS011;32017;43.700;11.820;2022-11-03T01:57:46;10.85;;;10.25;;
46282;SDS011;32017;43.700;11.820;2022-11-03T02:00:12;11.75;;;10.65;;
46282;SDS011;32017;43.700;11.820;2022-11-03T02:02:32;11.98;;;10.82;;
46282;SDS011;32017;43.700;11.820;2022-11-03T02:04:53;12.93;;;11.80;;
46282;SDS011;32017;43.700;11.820;2022-11-03T02:07:18;13.40;;;12.50;;
46282;SDS011;32017;43.700;11.820;2022-11-03T02:09:53;12.85;;;11.60;;
46282;SDS011;32017;43.700;11.820;2022-11-03T02:12:13;12.68;;;11.73;;
46282;SDS011;32017;43.700;11.820;2022-11-03T02:14:35;12.82;;;11.82;;
46282;SDS011;32017;43.700;11.820;2022-11-03T02:17:00;12.35;;;11.02;;
46282;SDS011;32017;43.700;11.820;2022-11-03T02:19:33;14.65;;;11.45;;
46282;SDS011;32017;43.700;11.820;2022-11-03T02:25:17;11.05;;;10.30;;
46282;SDS011;32017;43.700;11.820;2022-11-03T02:27:56;10.48;;;9.55;;
46282;SDS011;32017;43.700;11.820;2022-11-03T02:30:17;10.32;;;9.68;;
46282;SDS011;32017;43.700;11.820;2022-11-03T02:37:29;9.10;;;8.55;;
46282;SDS011;32017;43.700;11.820;2022-11-03T02:39:56;8.25;;;7.85;;
46282;SDS011;32017;43.700;11.820;2022-11-03T02:42:23;8.15;;;7.75;;
46282;SDS011;32017;43.700;11.820;2022-11-03T02:44:44;9.95;;;9.35;;
46282;SDS011;32017;43.700;11.820;2022-11-03T02:47:07;8.88;;;8.25;;
46282;SDS011;32017;43.700;11.820;2022-11-03T02:49:29;7.85;;;7.50;;
46282;SDS011;32017;43.700;11.820;2022-11-03T02:51:59;9.60;;;8.85;;
46282;SDS011;32017;43.700;11.820;2022-11-03T02:54:21;8.95;;;8.57;;
46282;SDS011;32017;43.700;11.820;2022-11-03T02:56:52;8.77;;;8.38;;
46282;SDS011;32017;43.700;11.820;2022-11-03T02:59:25;10.98;;;10.05;;
46282;SDS011;32017;43.700;11.820;2022-11-03T03:01:50;10.80;;;10.18;;
46282;SDS011;32017;43.700;11.820;2022-11-03T03:04:34;10.93;;;10.15;;
46282;SDS011;32017;43.700;11.820;2022-11-03T03:07:08;11.35;;;10.73;;
46282;SDS011;32017;43.700;11.820;2022-11-03T03:09:39;10.32;;;9.70;;
46282;SDS011;32017;43.700;11.820;2022-11-03T03:12:02;11.80;;;10.77;;
46282;SDS011;32017;43.700;11.820;2022-11-03T03:14:28;11.40;;;10.10;;
46282;SDS011;32017;43.700;11.820;2022-11-03T03:21:41;12.05;;;11.45;;
46282;SDS011;32017;43.700;11.820;2022-11-03T03:24:07;17.05;;;11.30;;
46282;SDS011;32017;43.700;11.820;2022-11-03T03:26:41;13.18;;;12.10;;
46282;SDS011;32017;43.700;11.820;2022-11-03T03:29:14;12.85;;;12.02;;
46282;SDS011;32017;43.700;11.820;2022-11-03T03:31:39;12.75;;;11.90;;
46282;SDS011;32017;43.700;11.820;2022-11-03T03:34:05;13.32;;;12.32;;
46282;SDS011;32017;43.700;11.820;2022-11-03T03:36:47;13.38;;;12.48;;
46282;SDS011;32017;43.700;11.820;2022-11-03T03:39:08;12.23;;;11.40;;
46282;SDS011;32017;43.700;11.820;2022-11-03T03:41:33;16.20;;;12.38;;
46282;SDS011;32017;43.700;11.820;2022-11-03T03:43:55;13.27;;;12.35;;
46282;SDS011;32017;43.700;11.820;2022-11-03T03:46:19;13.32;;;12.07;;
46282;SDS011;32017;43.700;11.820;2022-11-03T03:48:42;12.40;;;11.50;;
46282;SDS011;32017;43.700;11.820;2022-11-03T03:51:01;13.15;;;12.15;;
46282;SDS011;32017;43.700;11.820;2022-11-03T03:53:26;12.35;;;11.50;;
46282;SDS011;32017;43.700;11.820;2022-11-03T03:55:48;13.52;;;12.38;;
46282;SDS011;32017;43.700;11.820;2022-11-03T03:58:10;11.43;;;10.90;;
46282;SDS011;32017;43.700;11.820;2022-11-03T04:00:32;11.63;;;10.68;;
46282;SDS011;32017;43.700;11.820;2022-11-03T04:02:52;9.80;;;9.20;;
46282;SDS011;32017;43.700;11.820;2022-11-03T04:05:18;10.63;;;9.90;;
46282;SDS011;32017;43.700;11.820;2022-11-03T04:07:37;10.18;;;9.48;;
46282;SDS011;32017;43.700;11.820;2022-11-03T04:10:06;9.95;;;9.13;;
46282;SDS011;32017;43.700;11.820;2022-11-03T04:12:26;8.75;;;8.15;;
46282;SDS011;32017;43.700;11.820;2022-11-03T04:15:04;10.85;;;10.05;;
46282;SDS011;32017;43.700;11.820;2022-11-03T04:17:44;9.93;;;8.90;;
46282;SDS011;32017;43.700;11.820;2022-11-03T04:20:25;8.45;;;7.88;;
46282;SDS011;32017;43.700;11.820;2022-11-03T04:23:03;8.85;;;8.10;;
46282;SDS011;32017;43.700;11.820;2022-11-03T04:25:23;10.07;;;9.43;;
46282;SDS011;32017;43.700;11.820;2022-11-03T04:27:42;7.97;;;7.43;;
46282;SDS011;32017;43.700;11.820;2022-11-03T04:30:12;7.50;;;7.20;;
46282;SDS011;32017;43.700;11.820;2022-11-03T04:32:37;7.88;;;7.60;;
46282;SDS011;32017;43.700;11.820;2022-11-03T04:34:57;7.10;;;6.82;;
46282;SDS011;32017;43.700;11.820;2022-11-03T04:37:17;7.43;;;7.20;;
46282;SDS011;32017;43.700;11.820;2022-11-03T04:39:38;8.77;;;7.97;;
46282;SDS011;32017;43.700;11.820;2022-11-03T04:41:59;8.15;;;7.75;;
46282;SDS011;32017;43.700;11.820;2022-11-03T04:44:18;8.45;;;7.95;;
46282;SDS011;32017;43.700;11.820;2022-11-03T04:46:39;8.50;;;8.02;;
46282;SDS011;32017;43.700;11.820;2022-11-03T04:48:59;10.75;;;8.48;;
46282;SDS011;32017;43.700;11.820;2022-11-03T04:53:45;11.00;;;10.25;;
46282;SDS011;32017;43.700;11.820;2022-11-03T04:56:14;10.23;;;9.73;;
46282;SDS011;32017;43.700;11.820;2022-11-03T04:58:36;9.55;;;8.93;;
46282;SDS011;32017;43.700;11.820;2022-11-03T05:00:57;11.23;;;9.90;;
46282;SDS011;32017;43.700;11.820;2022-11-03T05:03:22;9.63;;;9.07;;
46282;SDS011;32017;43.700;11.820;2022-11-03T05:05:44;11.10;;;10.35;;
46282;SDS011;32017;43.700;11.820;2022-11-03T05:08:07;9.07;;;8.55;;
46282;SDS011;32017;43.700;11.820;2022-11-03T05:10:27;9.70;;;9.15;;
46282;SDS011;32017;43.700;11.820;2022-11-03T05:12:48;9.95;;;9.43;;
46282;SDS011;32017;43.700;11.820;2022-11-03T05:15:22;9.73;;;9.10;;
46282;SDS011;32017;43.700;11.820;2022-11-03T05:17:48;9.52;;;9.02;;
46282;SDS011;32017;43.700;11.820;2022-11-03T05:20:19;8.35;;;8.00;;
46282;SDS011;32017;43.700;11.820;2022-11-03T05:23:03;10.02;;;7.70;;
46282;SDS011;32017;43.700;11.820;2022-11-03T05:27:56;7.30;;;7.07;;
46282;SDS011;32017;43.700;11.820;2022-11-03T05:30:15;7.40;;;7.00;;
46282;SDS011;32017;43.700;11.820;2022-11-03T05:32:35;6.25;;;6.05;;
46282;SDS011;32017;43.700;11.820;2022-11-03T05:34:55;6.63;;;6.13;;
46282;SDS011;32017;43.700;11.820;2022-11-03T05:39:47;5.47;;;5.38;;
46282;SDS011;32017;43.700;11.820;2022-11-03T05:45:25;6.15;;;5.95;;
46282;SDS011;32017;43.700;11.820;2022-11-03T05:47:51;6.20;;;5.90;;
46282;SDS011;32017;43.700;11.820;2022-11-03T05:52:43;9.70;;;9.13;;
46282;SDS011;32017;43.700;11.820;2022-11-03T05:55:11;10.18;;;9.63;;
46282;SDS011;32017;43.700;11.820;2022-11-03T05:57:44;9.98;;;9.25;;
46282;SDS011;32017;43.700;11.820;2022-11-03T06:00:06;8.88;;;8.57;;
46282;SDS011;32017;43.700;11.820;2022-11-03T06:02:40;9.88;;;9.30;;
46282;SDS011;32017;43.700;11.820;2022-11-03T06:05:08;8.67;;;8.37;;
46282;SDS011;32017;43.700;11.820;2022-11-03T06:07:33;8.50;;;8.20;;
46282;SDS011;32017;43.700;11.820;2022-11-03T06:09:53;8.35;;;8.05;;
46282;SDS011;32017;43.700;11.820;2022-11-03T06:12:13;8.32;;;7.93;;
46282;SDS011;32017;43.700;11.820;2022-11-03T06:14:38;6.72;;;6.28;;
46282;SDS011;32017;43.700;11.820;2022-11-03T06:17:02;11.82;;;6.43;;
46282;SDS011;32017;43.700;11.820;2022-11-03T06:21:52;8.13;;;5.75;;
46282;SDS011;32017;43.700;11.820;2022-11-03T06:24:15;8.00;;;7.70;;
46282;SDS011;32017;43.700;11.820;2022-11-03T06:26:37;7.40;;;7.17;;
46282;SDS011;32017;43.700;11.820;2022-11-03T06:28:57;7.80;;;7.38;;
46282;SDS011;32017;43.700;11.820;2022-11-03T06:31:23;7.20;;;6.70;;
46282;SDS011;32017;43.700;11.820;2022-11-03T06:33:50;8.25;;;7.80;;
46282;SDS011;32017;43.700;11.820;2022-11-03T06:36:12;9.27;;;8.88;;
46282;SDS011;32017;43.700;11.820;2022-11-03T06:38:38;10.30;;;9.45;;
46282;SDS011;32017;43.700;11.820;2022-11-03T06:40:58;9.77;;;9.32;;
46282;SDS011;32017;43.700;11.820;2022-11-03T06:43:33;10.77;;;10.13;;
46282;SDS011;32017;43.700;11.820;2022-11-03T06:45:59;8.75;;;7.75;;
46282;SDS011;32017;43.700;11.820;2022-11-03T06:48:24;8.77;;;8.10;;
46282;SDS011;32017;43.700;11.820;2022-11-03T06:50:48;9.27;;;8.60;;
46282;SDS011;32017;43.700;11.820;2022-11-03T06:53:08;7.47;;;6.95;;
46282;SDS011;32017;43.700;11.820;2022-11-03T06:55:29;8.40;;;7.63;;
46282;SDS011;32017;43.700;11.820;2022-11-03T06:57:56;8.77;;;8.27;;
46282;SDS011;32017;43.700;11.820;2022-11-03T07:05:39;9.88;;;7.28;;
46282;SDS011;32017;43.700;11.820;2022-11-03T07:08:22;7.63;;;7.22;;
46282;SDS011;32017;43.700;11.820;2022-11-03T07:10:42;8.70;;;8.00;;
46282;SDS011;32017;43.700;11.820;2022-11-03T07:13:13;7.90;;;7.35;;
46282;SDS011;32017;43.700;11.820;2022-11-03T07:15:38;8.43;;;8.13;;
46282;SDS011;32017;43.700;11.820;2022-11-03T07:17:58;7.93;;;7.15;;
46282;SDS011;32017;43.700;11.820;2022-11-03T07:20:20;7.63;;;7.23;;
46282;SDS011;32017;43.700;11.820;2022-11-03T07:22:40;7.65;;;7.22;;
46282;SDS011;32017;43.700;11.820;2022-11-03T07:24:59;8.77;;;8.40;;
46282;SDS011;32017;43.700;11.820;2022-11-03T07:27:25;8.07;;;7.60;;
46282;SDS011;32017;43.700;11.820;2022-11-03T07:29:48;8.68;;;8.27;;
46282;SDS011;32017;43.700;11.820;2022-11-03T07:32:12;6.68;;;6.25;;
46282;SDS011;32017;43.700;11.820;2022-11-03T07:34:36;5.20;;;4.97;;
46282;SDS011;32017;43.700;11.820;2022-11-03T07:36:56;6.97;;;6.68;;
46282;SDS011;32017;43.700;11.820;2022-11-03T07:39:17;7.22;;;6.85;;
46282;SDS011;32017;43.700;11.820;2022-11-03T07:41:39;7.22;;;6.75;;
46282;SDS011;32017;43.700;11.820;2022-11-03T07:43:58;9.30;;;8.57;;
46282;SDS011;32017;43.700;11.820;2022-11-03T07:46:20;51.90;;;39.33;;
46282;SDS011;32017;43.700;11.820;2022-11-03T07:48:45;15.82;;;14.15;;
46282;SDS011;32017;43.700;11.820;2022-11-03T07:59:15;4.55;;;4.38;;
46282;SDS011;32017;43.700;11.820;2022-11-03T08:01:48;4.93;;;4.60;;
46282;SDS011;32017;43.700;11.820;2022-11-03T08:04:35;4.78;;;4.50;;
46282;SDS011;32017;43.700;11.820;2022-11-03T08:06:54;6.40;;;5.90;;
46282;SDS011;32017;43.700;11.820;2022-11-03T08:09:14;4.80;;;4.70;;
46282;SDS011;32017;43.700;11.820;2022-11-03T08:11:34;5.22;;;4.75;;
46282;SDS011;32017;43.700;11.820;2022-11-03T08:13:54;6.57;;;6.22;;
46282;SDS011;32017;43.700;11.820;2022-11-03T08:16:14;4.72;;;4.63;;
46282;SDS011;32017;43.700;11.820;2022-11-03T08:18:35;5.05;;;4.35;;
46282;SDS011;32017;43.700;11.820;2022-11-03T08:20:55;4.20;;;4.05;;
46282;SDS011;32017;43.700;11.820;2022-11-03T08:23:15;5.05;;;4.85;;
46282;SDS011;32017;43.700;11.820;2022-11-03T08:25:45;3.60;;;3.40;;
46282;SDS011;32017;43.700;11.820;2022-11-03T08:28:04;5.22;;;5.13;;
46282;SDS011;32017;43.700;11.820;2022-11-03T08:30:24;4.95;;;4.82;;
46282;SDS011;32017;43.700;11.820;2022-11-03T08:32:44;9.45;;;9.05;;
46282;SDS011;32017;43.700;11.820;2022-11-03T08:35:05;5.32;;;5.13;;
46282;SDS011;32017;43.700;11.820;2022-11-03T08:37:25;6.07;;;5.72;;
46282;SDS011;32017;43.700;11.820;2022-11-03T08:39:45;5.97;;;5.55;;
46282;SDS011;32017;43.700;11.820;2022-11-03T08:42:04;5.65;;;5.45;;
46282;SDS011;32017;43.700;11.820;2022-11-03T08:44:24;5.88;;;5.68;;
46282;SDS011;32017;43.700;11.820;2022-11-03T08:46:44;6.28;;;6.07;;
46282;SDS011;32017;43.700;11.820;2022-11-03T08:49:04;5.57;;;5.28;;
46282;SDS011;32017;43.700;11.820;2022-11-03T08:51:23;5.40;;;5.20;;
46282;SDS011;32017;43.700;11.820;2022-11-03T08:53:44;6.60;;;5.93;;
46282;SDS011;32017;43.700;11.820;2022-11-03T08:56:05;4.80;;;4.50;;
46282;SDS011;32017;43.700;11.820;2022-11-03T08:58:31;5.28;;;5.13;;
46282;SDS011;32017;43.700;11.820;2022-11-03T09:00:51;6.65;;;5.50;;
46282;SDS011;32017;43.700;11.820;2022-11-03T09:03:11;7.00;;;6.60;;
46282;SDS011;32017;43.700;11.820;2022-11-03T09:05:31;5.32;;;4.88;;
46282;SDS011;32017;43.700;11.820;2022-11-03T09:07:51;4.40;;;4.05;;
46282;SDS011;32017;43.700;11.820;2022-11-03T09:10:31;6.10;;;4.30;;
46282;SDS011;32017;43.700;11.820;2022-11-03T09:12:57;4.35;;;3.88;;
46282;SDS011;32017;43.700;11.820;2022-11-03T09:15:17;5.47;;;5.30;;
46282;SDS011;32017;43.700;11.820;2022-11-03T09:17:37;5.35;;;5.05;;
46282;SDS011;32017;43.700;11.820;2022-11-03T09:20:02;4.70;;;4.28;;
46282;SDS011;32017;43.700;11.820;2022-11-03T09:22:24;5.72;;;3.38;;
46282;SDS011;32017;43.700;11.820;2022-11-03T09:24:44;3.10;;;3.00;;
46282;SDS011;32017;43.700;11.820;2022-11-03T09:27:04;3.92;;;3.13;;
46282;SDS011;32017;43.700;11.820;2022-11-03T09:29:24;3.05;;;2.95;;
46282;SDS011;32017;43.700;11.820;2022-11-03T09:31:44;3.88;;;3.60;;
46282;SDS011;32017;43.700;11.820;2022-11-03T09:34:04;3.00;;;2.90;;
46282;SDS011;32017;43.700;11.820;2022-11-03T09:36:23;3.47;;;3.38;;
46282;SDS011;32017;43.700;11.820;2022-11-03T09:38:44;3.55;;;3.33;;
46282;SDS011;32017;43.700;11.820;2022-11-03T09:41:04;3.00;;;2.90;;
46282;SDS011;32017;43.700;11.820;2022-11-03T09:43:44;6.25;;;5.53;;
46282;SDS011;32017;43.700;11.820;2022-11-03T09:46:04;3.72;;;3.58;;
46282;SDS011;32017;43.700;11.820;2022-11-03T09:48:24;5.55;;;5.22;;
46282;SDS011;32017;43.700;11.820;2022-11-03T09:50:46;2.97;;;2.88;;
46282;SDS011;32017;43.700;11.820;2022-11-03T09:53:10;2.60;;;2.53;;
46282;SDS011;32017;43.700;11.820;2022-11-03T09:55:31;3.33;;;3.13;;
46282;SDS011;32017;43.700;11.820;2022-11-03T09:57:54;4.40;;;3.07;;
46282;SDS011;32017;43.700;11.820;2022-11-03T10:00:20;3.55;;;3.25;;
46282;SDS011;32017;43.700;11.820;2022-11-03T10:02:41;4.57;;;4.22;;
46282;SDS011;32017;43.700;11.820;2022-11-03T10:05:02;3.85;;;3.75;;
46282;SDS011;32017;43.700;11.820;2022-11-03T10:07:29;3.53;;;3.33;;
46282;SDS011;32017;43.700;11.820;2022-11-03T10:09:50;2.63;;;2.42;;
46282;SDS011;32017;43.700;11.820;2022-11-03T10:12:11;4.03;;;3.55;;
46282;SDS011;32017;43.700;11.820;2022-11-03T10:14:32;3.55;;;2.40;;
46282;SDS011;32017;43.700;11.820;2022-11-03T10:16:55;2.60;;;2.50;;
46282;SDS011;32017;43.700;11.820;2022-11-03T10:19:19;6.18;;;2.97;;
46282;SDS011;32017;43.700;11.820;2022-11-03T10:21:39;2.55;;;2.45;;
46282;SDS011;32017;43.700;11.820;2022-11-03T10:24:00;3.55;;;3.25;;
46282;SDS011;32017;43.700;11.820;2022-11-03T10:26:20;2.45;;;2.35;;
46282;SDS011;32017;43.700;11.820;2022-11-03T10:28:55;4.00;;;2.95;;
46282;SDS011;32017;43.700;11.820;2022-11-03T10:31:34;2.45;;;2.35;;
46282;SDS011;32017;43.700;11.820;2022-11-03T10:33:55;2.80;;;2.55;;
46282;SDS011;32017;43.700;11.820;2022-11-03T10:38:35;2.28;;;2.20;;
46282;SDS011;32017;43.700;11.820;2022-11-03T10:40:56;3.22;;;3.13;;
46282;SDS011;32017;43.700;11.820;2022-11-03T10:43:28;3.45;;;2.83;;
46282;SDS011;32017;43.700;11.820;2022-11-03T10:45:48;3.63;;;3.17;;
46282;SDS011;32017;43.700;11.820;2022-11-03T10:48:08;3.22;;;3.03;;
46282;SDS011;32017;43.700;11.820;2022-11-03T10:50:29;3.47;;;3.28;;
46282;SDS011;32017;43.700;11.820;2022-11-03T10:52:49;3.45;;;3.28;;
46282;SDS011;32017;43.700;11.820;2022-11-03T10:55:10;3.80;;;3.58;;
46282;SDS011;32017;43.700;11.820;2022-11-03T10:57:30;6.97;;;6.47;;
46282;SDS011;32017;43.700;11.820;2022-11-03T10:59:51;9.68;;;8.73;;
46282;SDS011;32017;43.700;11.820;2022-11-03T11:02:16;4.43;;;4.13;;
46282;SDS011;32017;43.700;11.820;2022-11-03T11:04:38;5.10;;;4.70;;
46282;SDS011;32017;43.700;11.820;2022-11-03T11:06:58;4.38;;;3.38;;
46282;SDS011;32017;43.700;11.820;2022-11-03T11:09:22;7.40;;;4.63;;
46282;SDS011;32017;43.700;11.820;2022-11-03T11:16:56;3.50;;;3.17;;
46282;SDS011;32017;43.700;11.820;2022-11-03T11:19:17;3.97;;;3.63;;
46282;SDS011;32017;43.700;11.820;2022-11-03T11:23:59;3.60;;;3.40;;
46282;SDS011;32017;43.700;11.820;2022-11-03T11:28:45;4.28;;;3.58;;
46282;SDS011;32017;43.700;11.820;2022-11-03T11:33:49;5.15;;;3.70;;
46282;SDS011;32017;43.700;11.820;2022-11-03T11:36:30;4.30;;;4.00;;
46282;SDS011;32017;43.700;11.820;2022-11-03T11:41:10;6.10;;;4.63;;
46282;SDS011;32017;43.700;11.820;2022-11-03T11:43:30;4.22;;;4.00;;
46282;SDS011;32017;43.700;11.820;2022-11-03T11:48:41;3.80;;;3.50;;
46282;SDS011;32017;43.700;11.820;2022-11-03T11:51:02;10.32;;;4.40;;
46282;SDS011;32017;43.700;11.820;2022-11-03T11:53:26;5.50;;;3.20;;
46282;SDS011;32017;43.700;11.820;2022-11-03T11:55:51;5.57;;;3.03;;
46282;SDS011;32017;43.700;11.820;2022-11-03T12:00:52;4.32;;;3.20;;
46282;SDS011;32017;43.700;11.820;2022-11-03T12:03:14;5.65;;;2.50;;
46282;SDS011;32017;43.700;11.820;2022-11-03T12:05:34;5.82;;;2.90;;
46282;SDS011;32017;43.700;11.820;2022-11-03T12:07:54;3.00;;;2.70;;
46282;SDS011;32017;43.700;11.820;2022-11-03T12:10:15;4.18;;;3.88;;
46282;SDS011;32017;43.700;11.820;2022-11-03T12:12:37;4.22;;;2.83;;
46282;SDS011;32017;43.700;11.820;2022-11-03T12:14:57;3.55;;;3.38;;
46282;SDS011;32017;43.700;11.820;2022-11-03T12:19:37;8.75;;;3.15;;
46282;SDS011;32017;43.700;11.820;2022-11-03T12:22:08;3.20;;;3.10;;
46282;SDS011;32017;43.700;11.820;2022-11-03T12:26:56;3.53;;;3.17;;
46282;SDS011;32017;43.700;11.820;2022-11-03T12:29:20;3.78;;;3.35;;
46282;SDS011;32017;43.700;11.820;2022-11-03T12:31:39;3.42;;;3.13;;
46282;SDS011;32017;43.700;11.820;2022-11-03T12:34:00;3.90;;;3.47;;
46282;SDS011;32017;43.700;11.820;2022-11-03T12:36:20;2.97;;;2.88;;
46282;SDS011;32017;43.700;11.820;2022-11-03T12:38:40;2.25;;;2.15;;
46282;SDS011;32017;43.700;11.820;2022-11-03T12:41:01;2.75;;;2.55;;
46282;SDS011;32017;43.700;11.820;2022-11-03T12:43:39;3.33;;;3.05;;
46282;SDS011;32017;43.700;11.820;2022-11-03T12:46:02;2.63;;;2.38;;
46282;SDS011;32017;43.700;11.820;2022-11-03T12:48:21;5.18;;;3.03;;
46282;SDS011;32017;43.700;11.820;2022-11-03T12:50:41;5.13;;;4.10;;
46282;SDS011;32017;43.700;11.820;2022-11-03T12:53:01;8.75;;;4.03;;
46282;SDS011;32017;43.700;11.820;2022-11-03T12:55:23;3.00;;;2.67;;
46282;SDS011;32017;43.700;11.820;2022-11-03T12:57:42;4.07;;;3.78;;
46282;SDS011;32017;43.700;11.820;2022-11-03T13:00:04;3.08;;;2.75;;
46282;SDS011;32017;43.700;11.820;2022-11-03T13:02:24;2.10;;;2.00;;
46282;SDS011;32017;43.700;11.820;2022-11-03T13:04:45;3.33;;;2.90;;
46282;SDS011;32017;43.700;11.820;2022-11-03T13:07:04;2.95;;;2.85;;
46282;SDS011;32017;43.700;11.820;2022-11-03T13:09:25;2.55;;;2.45;;
46282;SDS011;32017;43.700;11.820;2022-11-03T13:11:45;3.20;;;2.60;;
46282;SDS011;32017;43.700;11.820;2022-11-03T13:14:23;4.45;;;4.25;;
46282;SDS011;32017;43.700;11.820;2022-11-03T13:16:45;3.08;;;2.97;;
46282;SDS011;32017;43.700;11.820;2022-11-03T13:19:04;3.13;;;2.97;;
46282;SDS011;32017;43.700;11.820;2022-11-03T13:21:24;6.50;;;4.10;;
46282;SDS011;32017;43.700;11.820;2022-11-03T13:23:44;2.72;;;2.63;;
46282;SDS011;32017;43.700;11.820;2022-11-03T13:26:04;4.60;;;4.13;;
46282;SDS011;32017;43.700;11.820;2022-11-03T13:28:24;2.88;;;2.67;;
46282;SDS011;32017;43.700;11.820;2022-11-03T13:30:44;4.10;;;2.55;;
46282;SDS011;32017;43.700;11.820;2022-11-03T13:33:03;2.67;;;2.35;;
46282;SDS011;32017;43.700;11.820;2022-11-03T13:35:24;4.07;;;2.70;;
46282;SDS011;32017;43.700;11.820;2022-11-03T13:37:44;2.75;;;2.55;;
46282;SDS011;32017;43.700;11.820;2022-11-03T13:40:04;2.45;;;2.25;;
46282;SDS011;32017;43.700;11.820;2022-11-03T13:42:24;3.92;;;3.45;;
46282;SDS011;32017;43.700;11.820;2022-11-03T13:44:44;3.08;;;2.92;;
46282;SDS011;32017;43.700;11.820;2022-11-03T13:47:04;2.70;;;2.50;;
46282;SDS011;32017;43.700;11.820;2022-11-03T13:49:28;3.15;;;1.80;;
46282;SDS011;32017;43.700;11.820;2022-11-03T13:52:08;3.35;;;2.58;;
46282;SDS011;32017;43.700;11.820;2022-11-03T13:54:28;3.90;;;3.55;;
46282;SDS011;32017;43.700;11.820;2022-11-03T13:57:08;2.15;;;1.90;;
46282;SDS011;32017;43.700;11.820;2022-11-03T13:59:48;3.47;;;2.55;;
46282;SDS011;32017;43.700;11.820;2022-11-03T14:02:08;2.35;;;2.10;;
46282;SDS011;32017;43.700;11.820;2022-11-03T14:04:48;3.42;;;3.22;;
46282;SDS011;32017;43.700;11.820;2022-11-03T14:07:07;3.22;;;2.63;;
46282;SDS011;32017;43.700;11.820;2022-11-03T14:09:27;2.45;;;2.25;;
46282;SDS011;32017;43.700;11.820;2022-11-03T14:11:47;5.20;;;3.15;;
46282;SDS011;32017;43.700;11.820;2022-11-03T14:14:26;3.17;;;2.63;;
46282;SDS011;32017;43.700;11.820;2022-11-03T14:16:45;3.40;;;3.08;;
46282;SDS011;32017;43.700;11.820;2022-11-03T14:19:05;3.83;;;3.63;;
46282;SDS011;32017;43.700;11.820;2022-11-03T14:21:25;4.20;;;3.90;;
46282;SDS011;32017;43.700;11.820;2022-11-03T14:23:44;5.75;;;3.05;;
46282;SDS011;32017;43.700;11.820;2022-11-03T14:26:04;2.58;;;2.47;;
46282;SDS011;32017;43.700;11.820;2022-11-03T14:28:44;6.70;;;2.67;;
46282;SDS011;32017;43.700;11.820;2022-11-03T14:31:03;2.83;;;2.63;;
46282;SDS011;32017;43.700;11.820;2022-11-03T14:33:24;5.00;;;3.50;;
46282;SDS011;32017;43.700;11.820;2022-11-03T14:35:44;4.40;;;3.55;;
46282;SDS011;32017;43.700;11.820;2022-11-03T14:38:04;4.22;;;2.60;;
46282;SDS011;32017;43.700;11.820;2022-11-03T14:40:24;2.70;;;2.58;;
46282;SDS011;32017;43.700;11.820;2022-11-03T14:43:10;2.10;;;2.00;;
46282;SDS011;32017;43.700;11.820;2022-11-03T14:45:30;3.05;;;2.75;;
46282;SDS011;32017;43.700;11.820;2022-11-03T14:47:50;4.10;;;2.60;;
46282;SDS011;32017;43.700;11.820;2022-11-03T14:50:10;2.70;;;2.15;;
46282;SDS011;32017;43.700;11.820;2022-11-03T14:52:29;3.35;;;2.58;;
46282;SDS011;32017;43.700;11.820;2022-11-03T14:54:49;5.35;;;2.72;;
46282;SDS011;32017;43.700;11.820;2022-11-03T14:57:10;2.55;;;2.35;;
46282;SDS011;32017;43.700;11.820;2022-11-03T14:59:29;2.80;;;1.88;;
46282;SDS011;32017;43.700;11.820;2022-11-03T15:01:50;4.03;;;2.95;;
46282;SDS011;32017;43.700;11.820;2022-11-03T15:04:11;4.70;;;2.47;;
46282;SDS011;32017;43.700;11.820;2022-11-03T15:06:31;3.65;;;3.35;;
46282;SDS011;32017;43.700;11.820;2022-11-03T15:08:50;5.53;;;5.10;;
46282;SDS011;32017;43.700;11.820;2022-11-03T15:11:15;3.45;;;3.15;;
46282;SDS011;32017;43.700;11.820;2022-11-03T15:13:35;4.60;;;4.35;;
46282;SDS011;32017;43.700;11.820;2022-11-03T15:16:04;7.78;;;5.53;;
46282;SDS011;32017;43.700;11.820;2022-11-03T15:18:25;4.43;;;4.30;;
46282;SDS011;32017;43.700;11.820;2022-11-03T15:20:45;6.97;;;6.35;;